createdAt,value
2018-06-24T00:01:05.087Z,64.62
2018-06-24T00:03:36.097Z,65.30
2018-06-24T00:06:03.426Z,65.42
2018-06-24T00:08:30.764Z,65.88
2018-06-24T00:10:58.093Z,65.72
2018-06-24T00:13:25.678Z,66.01
2018-06-24T00:15:53.012Z,65.25
2018-06-24T00:18:20.423Z,65.63
2018-06-24T00:20:47.745Z,66.10
2018-06-24T00:23:15.059Z,66.75
2018-06-24T00:25:42.525Z,66.36
2018-06-24T00:28:09.911Z,66.62
2018-06-24T00:30:37.320Z,65.38
2018-06-24T00:33:04.655Z,66.04
2018-06-24T00:35:32.064Z,65.50
2018-06-24T00:37:59.406Z,65.51
2018-06-24T00:40:27.467Z,65.92
2018-06-24T00:42:54.883Z,66.20
2018-06-24T00:45:22.288Z,65.69
2018-06-24T00:47:49.703Z,66.18
2018-06-24T00:50:17.077Z,66.23
2018-06-24T00:52:44.480Z,66.78
2018-06-24T00:55:11.899Z,66.23
2018-06-24T00:57:39.264Z,66.38
2018-06-24T01:00:11.142Z,66.44
2018-06-24T01:02:38.905Z,67.12
2018-06-24T01:05:06.300Z,65.88
2018-06-24T01:07:33.681Z,66.27
2018-06-24T01:10:01.094Z,66.30
2018-06-24T01:12:28.645Z,66.56
2018-06-24T01:14:57.275Z,66.78
2018-06-24T01:17:24.699Z,66.61
2018-06-24T01:19:53.844Z,67.38
2018-06-24T01:22:21.226Z,66.76
2018-06-24T01:24:48.603Z,67.05
2018-06-24T01:27:15.984Z,66.47
2018-06-24T01:29:43.332Z,66.49
2018-06-24T01:32:10.707Z,67.02
2018-06-24T01:34:38.098Z,66.67
2018-06-24T01:37:05.541Z,66.23
2018-06-24T01:39:32.964Z,66.44
2018-06-24T01:42:00.341Z,66.74
2018-06-24T01:44:27.692Z,67.18
2018-06-24T01:46:55.032Z,67.18
2018-06-24T01:49:22.423Z,67.08
2018-06-24T01:51:49.823Z,67.45
2018-06-24T01:54:17.328Z,67.41
2018-06-24T01:56:44.702Z,66.95
2018-06-24T01:59:12.041Z,67.13
2018-06-24T02:01:39.374Z,66.70
2018-06-24T02:04:06.859Z,66.83
2018-06-24T02:06:34.265Z,66.43
2018-06-24T02:09:01.631Z,66.10
2018-06-24T02:11:29.015Z,66.35
2018-06-24T02:13:56.366Z,67.74
2018-06-24T02:16:23.659Z,69.06
2018-06-24T02:18:51.037Z,71.23
2018-06-24T02:21:18.306Z,70.88
2018-06-24T02:23:45.717Z,69.92
2018-06-24T02:26:13.088Z,69.59
2018-06-24T02:28:40.510Z,68.95
2018-06-24T02:31:07.951Z,68.99
2018-06-24T02:33:35.283Z,68.96
2018-06-24T02:36:02.683Z,68.80
2018-06-24T02:38:29.947Z,68.29
2018-06-24T02:40:57.318Z,67.90
2018-06-24T02:43:24.723Z,68.80
2018-06-24T02:45:52.098Z,69.43
2018-06-24T02:48:19.467Z,69.03
2018-06-24T02:50:46.910Z,69.90
2018-06-24T02:53:14.260Z,69.26
2018-06-24T02:55:41.591Z,68.86
2018-06-24T02:58:08.956Z,69.45
2018-06-24T03:00:36.428Z,68.41
2018-06-24T03:03:03.723Z,68.21
2018-06-24T03:05:31.090Z,68.36
2018-06-24T03:07:58.543Z,69.01
2018-06-24T03:10:25.796Z,68.50
2018-06-24T03:12:53.126Z,68.90
2018-06-24T03:15:20.443Z,69.07
2018-06-24T03:17:47.771Z,68.93
2018-06-24T03:20:15.084Z,68.75
2018-06-24T03:22:42.413Z,69.03
2018-06-24T03:25:09.784Z,69.24
2018-06-24T03:27:37.113Z,68.56
2018-06-24T03:30:04.587Z,69.09
2018-06-24T03:32:31.957Z,68.24
2018-06-24T03:34:59.403Z,68.62
2018-06-24T03:37:26.747Z,68.86
2018-06-24T03:39:54.304Z,68.04
2018-06-24T03:42:21.607Z,68.56
2018-06-24T03:44:48.926Z,68.60
2018-06-24T03:47:16.376Z,68.29
2018-06-24T03:49:45.090Z,68.80
2018-06-24T03:52:12.578Z,69.01
2018-06-24T03:54:39.926Z,69.66
2018-06-24T03:57:07.304Z,69.57
2018-06-24T03:59:34.674Z,69.13
2018-06-24T04:02:02.081Z,69.27
2018-06-24T04:04:29.376Z,69.20
2018-06-24T04:06:56.701Z,69.01
2018-06-24T04:09:24.090Z,69.15
2018-06-24T04:11:51.447Z,68.97
2018-06-24T04:14:18.818Z,69.07
2018-06-24T04:16:46.209Z,68.19
2018-06-24T04:19:13.554Z,67.36
2018-06-24T04:21:40.905Z,67.84
2018-06-24T04:24:08.320Z,67.32
2018-06-24T04:26:35.673Z,68.15
2018-06-24T04:29:03.068Z,68.77
2018-06-24T04:31:30.513Z,69.57
2018-06-24T04:33:57.846Z,69.80
2018-06-24T04:36:25.190Z,69.79
2018-06-24T04:38:52.528Z,69.97
2018-06-24T04:41:19.847Z,69.96
2018-06-24T04:43:47.131Z,69.46
2018-06-24T04:46:14.535Z,69.49
2018-06-24T04:48:41.965Z,68.69
2018-06-24T04:51:09.244Z,69.45
2018-06-24T04:53:36.583Z,69.49
2018-06-24T04:56:04.062Z,69.32
2018-06-24T04:58:31.505Z,69.57
2018-06-24T05:00:58.857Z,70.45
2018-06-24T05:03:26.147Z,70.46
2018-06-24T05:05:53.577Z,70.71
2018-06-24T05:08:20.956Z,70.04
2018-06-24T05:10:48.340Z,69.66
2018-06-24T05:13:15.665Z,68.65
2018-06-24T05:15:43.073Z,68.63
2018-06-24T05:18:10.466Z,68.25
2018-06-24T05:20:37.756Z,67.26
2018-06-24T05:23:05.270Z,67.83
2018-06-24T05:25:32.637Z,67.90
2018-06-24T05:27:59.907Z,69.15
2018-06-24T05:30:27.390Z,69.20
2018-06-24T05:32:54.748Z,69.80
2018-06-24T05:35:22.188Z,68.96
2018-06-24T05:37:49.504Z,69.14
2018-06-24T05:40:16.886Z,69.13
2018-06-24T05:42:44.264Z,69.14
2018-06-24T05:45:11.574Z,69.06
2018-06-24T05:47:38.942Z,69.12
2018-06-24T05:50:06.396Z,67.72
2018-06-24T05:52:33.696Z,68.21
2018-06-24T05:55:00.966Z,68.39
2018-06-24T05:57:28.355Z,68.12
2018-06-24T05:59:55.905Z,67.97
2018-06-24T06:02:23.313Z,68.59
2018-06-24T06:04:50.868Z,68.89
2018-06-24T06:07:18.423Z,67.53
2018-06-24T06:09:46.904Z,68.11
2018-06-24T06:14:48.488Z,68.01
2018-06-24T06:17:15.879Z,67.95
2018-06-24T06:19:43.246Z,68.02
2018-06-24T06:22:10.575Z,67.58
2018-06-24T06:24:37.937Z,66.98
2018-06-24T06:27:05.335Z,67.47
2018-06-24T06:29:32.730Z,66.86
2018-06-24T06:32:00.085Z,67.25
2018-06-24T06:34:27.479Z,66.38
2018-06-24T06:36:54.965Z,65.35
2018-06-24T06:39:22.375Z,65.32
2018-06-24T06:41:49.819Z,65.83
2018-06-24T06:44:17.411Z,65.22
2018-06-24T06:46:44.976Z,63.74
2018-06-24T06:49:12.479Z,62.83
2018-06-24T06:51:41.327Z,61.76
2018-06-24T06:54:08.852Z,60.74
2018-06-24T06:56:36.383Z,61.64
2018-06-24T06:59:03.891Z,59.45
2018-06-24T07:01:31.565Z,57.60
2018-06-24T07:03:59.200Z,58.05
2018-06-24T07:06:26.574Z,57.48
2018-06-24T07:08:53.990Z,57.63
2018-06-24T07:11:21.715Z,57.71
2018-06-24T07:13:50.653Z,57.16
2018-06-24T07:16:18.091Z,56.55
2018-06-24T07:18:45.508Z,56.40
2018-06-24T07:21:12.917Z,56.30
2018-06-24T07:23:40.281Z,58.29
2018-06-24T07:26:07.642Z,57.73
2018-06-24T07:28:35.034Z,57.17
2018-06-24T07:31:02.365Z,56.17
2018-06-24T07:33:29.716Z,54.59
2018-06-24T07:35:57.071Z,55.52
2018-06-24T07:38:24.986Z,54.44
2018-06-24T07:40:52.463Z,55.69
2018-06-24T07:43:19.790Z,54.33
2018-06-24T07:45:47.167Z,53.73
2018-06-24T07:48:14.563Z,54.19
2018-06-24T07:50:41.882Z,54.02
2018-06-24T07:53:09.263Z,53.73
2018-06-24T07:55:36.624Z,54.56
2018-06-24T07:58:04.019Z,53.15
2018-06-24T08:00:31.391Z,52.55
2018-06-24T08:02:58.700Z,52.01
2018-06-24T08:05:25.984Z,51.24
2018-06-24T08:07:53.331Z,50.13
2018-06-24T08:10:20.742Z,50.41
2018-06-24T08:12:48.954Z,51.98
2018-06-24T08:15:16.390Z,53.76
2018-06-24T08:17:43.808Z,53.11
2018-06-24T08:20:11.216Z,50.62
2018-06-24T08:22:38.600Z,52.46
2018-06-24T08:25:05.975Z,50.36
2018-06-24T08:27:33.374Z,47.76
2018-06-24T08:30:00.827Z,48.03
2018-06-24T08:32:28.170Z,45.36
2018-06-24T08:34:55.548Z,45.95
2018-06-24T08:37:22.897Z,44.89
2018-06-24T08:39:50.475Z,45.87
2018-06-24T08:42:17.888Z,44.02
2018-06-24T08:44:45.327Z,41.72
2018-06-24T08:47:12.777Z,40.94
2018-06-24T08:49:40.214Z,41.67
2018-06-24T08:52:07.623Z,42.53
2018-06-24T08:54:34.999Z,41.63
2018-06-24T08:57:02.351Z,40.24
2018-06-24T08:59:36.235Z,40.42
2018-06-24T09:02:03.582Z,39.73
2018-06-24T09:04:31.324Z,41.79
2018-06-24T09:06:59.248Z,40.71
2018-06-24T09:09:26.610Z,40.82
2018-06-24T09:11:53.956Z,40.44
2018-06-24T09:14:21.419Z,40.26
2018-06-24T09:17:40.813Z,43.14
2018-06-24T09:20:08.282Z,44.05
2018-06-24T09:22:35.621Z,41.70
2018-06-24T09:25:03.098Z,42.04
2018-06-24T09:27:30.480Z,41.71
2018-06-24T09:29:57.818Z,39.69
2018-06-24T09:32:25.178Z,43.56
2018-06-24T09:34:52.619Z,41.18
2018-06-24T09:37:20.179Z,41.93
2018-06-24T09:39:47.600Z,42.05
2018-06-24T09:42:14.961Z,41.66
2018-06-24T09:44:42.275Z,41.41
2018-06-24T09:47:09.703Z,39.20
2018-06-24T09:49:42.650Z,39.09
2018-06-24T09:52:11.920Z,38.99
2018-06-24T09:54:41.623Z,38.67
2018-06-24T09:57:09.009Z,39.64
2018-06-24T09:59:36.483Z,38.74
2018-06-24T10:02:03.873Z,37.49
2018-06-24T10:04:31.344Z,38.67
2018-06-24T10:06:58.750Z,37.20
2018-06-24T10:09:26.432Z,38.56
2018-06-24T10:11:53.749Z,40.56
2018-06-24T10:14:21.053Z,38.97
2018-06-24T10:16:48.287Z,41.74
2018-06-24T10:19:15.600Z,41.34
2018-06-24T10:21:43.571Z,40.49
2018-06-24T10:24:10.886Z,40.35
2018-06-24T10:26:38.263Z,39.49
2018-06-24T10:29:05.986Z,39.89
2018-06-24T10:31:33.386Z,39.55
2018-06-24T10:34:00.753Z,38.44
2018-06-24T10:36:28.032Z,37.38
2018-06-24T10:38:55.499Z,40.45
2018-06-24T10:41:22.969Z,40.17
2018-06-24T10:43:50.232Z,40.11
2018-06-24T10:46:17.601Z,40.30
2018-06-24T10:48:44.923Z,40.55
2018-06-24T10:51:12.141Z,39.37
2018-06-24T10:53:39.407Z,39.24
2018-06-24T10:56:06.738Z,38.41
2018-06-24T10:58:34.046Z,38.52
2018-06-24T11:01:12.868Z,37.14
2018-06-24T11:03:46.923Z,38.34
2018-06-24T11:06:19.522Z,37.10
2018-06-24T11:08:46.991Z,39.17
2018-06-24T11:11:14.380Z,39.58
2018-06-24T11:13:47.271Z,39.86
2018-06-24T11:16:14.632Z,40.33
2018-06-24T11:18:42.093Z,36.77
2018-06-24T11:21:09.442Z,37.44
2018-06-24T11:23:36.730Z,34.80
2018-06-24T11:26:04.130Z,37.34
2018-06-24T11:28:31.406Z,37.85
2018-06-24T11:30:58.761Z,37.50
2018-06-24T11:33:26.006Z,39.40
2018-06-24T11:35:53.362Z,39.90
2018-06-24T11:38:20.716Z,39.40
2018-06-24T11:40:58.903Z,38.87
2018-06-24T11:43:26.260Z,39.94
2018-06-24T11:45:53.720Z,39.61
2018-06-24T11:48:21.050Z,38.75
2018-06-24T11:50:48.272Z,37.83
2018-06-24T11:53:15.541Z,38.90
2018-06-24T11:55:42.855Z,37.72
2018-06-24T11:58:10.167Z,37.24
2018-06-24T12:00:37.534Z,37.03
2018-06-24T12:03:05.082Z,36.05
2018-06-24T12:05:32.382Z,36.59
2018-06-24T12:07:59.700Z,37.58
2018-06-24T12:10:26.995Z,34.89
2018-06-24T12:12:54.361Z,33.88
2018-06-24T12:15:22.118Z,33.21
2018-06-24T12:17:59.306Z,32.90
2018-06-24T12:20:27.149Z,31.84
2018-06-24T12:22:54.431Z,32.32
2018-06-24T12:25:21.804Z,29.49
2018-06-24T12:27:49.145Z,28.88
2018-06-24T12:30:16.588Z,29.95
2018-06-24T12:32:43.964Z,30.37
2018-06-24T12:35:11.711Z,29.67
2018-06-24T12:37:39.141Z,29.72
2018-06-24T12:40:06.691Z,29.07
2018-06-24T12:42:34.062Z,29.67
2018-06-24T12:45:01.512Z,29.58
2018-06-24T12:47:28.988Z,28.82
2018-06-24T12:49:56.357Z,28.33
2018-06-24T12:52:23.748Z,30.20
2018-06-24T12:54:51.043Z,30.48
2018-06-24T12:57:18.466Z,31.07
2018-06-24T12:59:46.005Z,31.21
2018-06-24T13:02:13.171Z,32.60
2018-06-24T13:04:40.596Z,34.12
2018-06-24T13:07:07.886Z,33.71
2018-06-24T13:09:35.256Z,33.00
2018-06-24T13:12:02.595Z,30.96
2018-06-24T13:14:29.958Z,32.15
2018-06-24T13:16:57.266Z,32.16
2018-06-24T13:19:24.590Z,31.23
2018-06-24T13:21:52.019Z,31.91
2018-06-24T13:24:19.688Z,32.54
2018-06-24T13:26:47.197Z,33.33
2018-06-24T13:29:14.461Z,34.11
2018-06-24T13:31:42.047Z,33.60
2018-06-24T13:34:09.412Z,34.44
2018-06-24T13:36:37.206Z,33.13
2018-06-24T13:39:07.013Z,33.02
2018-06-24T13:41:34.357Z,30.66
2018-06-24T13:44:02.403Z,31.91
2018-06-24T13:46:34.121Z,31.08
2018-06-24T13:49:01.872Z,31.70
2018-06-24T13:51:29.228Z,32.46
2018-06-24T13:54:05.655Z,31.93
2018-06-24T13:56:33.495Z,31.57
2018-06-24T13:59:00.845Z,30.67
2018-06-24T14:01:28.185Z,30.97
2018-06-24T14:03:55.658Z,30.02
2018-06-24T14:06:22.975Z,32.08
2018-06-24T14:08:50.231Z,31.92
2018-06-24T14:11:17.496Z,32.56
2018-06-24T14:13:44.865Z,33.26
2018-06-24T14:16:12.265Z,32.64
2018-06-24T14:18:40.094Z,33.05
2018-06-24T14:21:07.487Z,32.48
2018-06-24T15:07:18.092Z,31.07
2018-06-24T15:09:45.382Z,31.88
2018-06-24T15:12:12.795Z,30.99
2018-06-24T15:14:40.357Z,30.93
2018-06-24T15:17:07.670Z,30.90
2018-06-24T15:19:35.083Z,31.89
2018-06-24T15:22:11.806Z,32.43
2018-06-24T15:24:39.689Z,31.70
2018-06-24T15:27:07.159Z,32.85
2018-06-24T15:29:34.572Z,33.06
2018-06-24T15:32:02.478Z,33.53
2018-06-24T15:34:29.959Z,33.92
2018-06-24T15:36:57.270Z,34.20
2018-06-24T15:39:24.676Z,34.95
2018-06-24T15:41:51.966Z,35.84
2018-06-24T15:44:19.354Z,34.98
2018-06-24T15:49:39.440Z,35.76
2018-06-24T15:52:06.792Z,35.72
2018-06-24T15:54:34.209Z,36.68
2018-06-24T15:57:01.978Z,36.36
2018-06-24T15:59:29.283Z,35.27
2018-06-24T16:01:56.616Z,36.13
2018-06-24T16:04:24.717Z,36.26
2018-06-24T16:06:52.060Z,36.99
2018-06-24T16:09:19.468Z,36.94
2018-06-24T16:11:46.776Z,36.07
2018-06-24T16:14:14.140Z,36.10
2018-06-24T16:16:41.484Z,35.89
2018-06-24T16:19:08.800Z,37.18
2018-06-24T16:21:36.216Z,37.44
2018-06-24T16:24:03.824Z,36.76
2018-06-24T16:26:31.123Z,36.77
2018-06-24T16:28:58.487Z,36.78
2018-06-24T16:31:25.921Z,36.38
2018-06-24T16:33:59.762Z,36.82
2018-06-24T16:36:27.141Z,36.47
2018-06-24T16:38:54.540Z,37.20
2018-06-24T16:41:23.604Z,36.71
2018-06-24T16:43:50.990Z,36.62
2018-06-24T16:46:18.442Z,37.22
2018-06-24T16:48:45.798Z,37.33
2018-06-24T16:51:13.149Z,36.66
2018-06-24T16:53:40.593Z,37.16
2018-06-24T16:56:07.957Z,37.77
2018-06-24T16:58:35.278Z,37.80
2018-06-24T17:01:02.712Z,38.32
2018-06-24T17:03:30.104Z,38.88
2018-06-24T17:05:57.625Z,38.45
2018-06-24T17:08:24.948Z,39.52
2018-06-24T17:10:52.247Z,38.37
2018-06-24T17:13:19.606Z,39.41
2018-06-24T17:15:46.985Z,38.97
2018-06-24T17:18:14.350Z,40.23
2018-06-24T17:20:41.655Z,38.91
2018-06-24T17:23:09.008Z,40.26
2018-06-24T17:25:36.482Z,40.88
2018-06-24T17:28:03.818Z,40.43
2018-06-24T17:30:31.331Z,40.58
2018-06-24T17:32:58.657Z,40.78
2018-06-24T17:35:26.119Z,41.50
2018-06-24T17:37:53.464Z,41.68
2018-06-24T17:40:20.897Z,41.39
2018-06-24T17:42:48.322Z,41.43
2018-06-24T17:45:15.782Z,40.95
2018-06-24T17:47:43.144Z,42.13
2018-06-24T17:50:10.545Z,42.24
2018-06-24T17:52:37.981Z,42.51
2018-06-24T17:55:05.332Z,42.61
2018-06-24T17:57:32.749Z,42.94
2018-06-24T18:00:00.168Z,43.48
2018-06-24T18:02:27.657Z,43.09
2018-06-24T18:04:55.126Z,43.19
2018-06-24T18:07:22.420Z,44.33
2018-06-24T18:09:49.834Z,44.68
2018-06-24T18:12:17.192Z,44.71
2018-06-24T18:14:46.379Z,44.67
2018-06-24T18:17:13.981Z,44.29
2018-06-24T18:19:41.375Z,44.72
2018-06-24T18:22:08.690Z,45.21
2018-06-24T18:24:36.459Z,45.62
2018-06-24T18:27:04.543Z,46.64
2018-06-24T18:29:31.848Z,46.12
2018-06-24T18:31:59.256Z,46.21
2018-06-24T18:34:26.638Z,46.86
2018-06-24T18:36:53.937Z,46.40
2018-06-24T18:39:21.273Z,47.26
2018-06-24T18:41:48.643Z,46.45
2018-06-24T18:44:16.116Z,46.86
2018-06-24T18:46:43.515Z,47.35
2018-06-24T18:49:10.886Z,47.41
2018-06-24T18:51:43.186Z,46.71
2018-06-24T18:54:14.154Z,47.60
2018-06-24T18:56:41.583Z,47.12
2018-06-24T18:59:09.549Z,47.40
2018-06-24T19:01:36.977Z,47.48
2018-06-24T19:04:04.450Z,47.81
2018-06-24T19:06:31.901Z,47.72
2018-06-24T19:08:59.259Z,48.24
2018-06-24T19:11:26.717Z,48.50
2018-06-24T19:13:54.056Z,48.99
2018-06-24T19:16:21.509Z,48.93
2018-06-24T19:18:48.929Z,48.78
2018-06-24T19:21:16.355Z,47.51
2018-06-24T19:23:43.730Z,48.37
2018-06-24T19:26:11.176Z,48.73
2018-06-24T19:28:38.621Z,49.30
2018-06-24T19:31:06.032Z,48.93
2018-06-24T19:33:33.452Z,48.22
2018-06-24T19:36:01.231Z,49.06
2018-06-24T19:38:28.693Z,48.51
2018-06-24T19:41:09.004Z,48.91
2018-06-24T19:43:36.296Z,48.92
2018-06-24T19:46:03.685Z,49.01
2018-06-24T19:48:31.034Z,48.84
2018-06-24T19:50:58.467Z,49.18
2018-06-24T19:53:25.791Z,50.28
2018-06-24T19:55:53.144Z,50.69
2018-06-24T19:58:20.673Z,50.68
2018-06-24T20:01:31.381Z,50.73
2018-06-24T20:03:58.706Z,51.31
2018-06-24T20:06:26.027Z,50.80
2018-06-24T20:08:53.250Z,51.18
2018-06-24T20:11:20.555Z,50.96
2018-06-24T20:13:48.018Z,51.08
2018-06-24T20:16:15.398Z,51.16
2018-06-24T20:18:42.825Z,51.65
2018-06-24T20:21:10.177Z,51.34
2018-06-24T20:23:37.477Z,51.12
2018-06-24T20:26:04.908Z,52.09
2018-06-24T20:28:32.296Z,52.14
2018-06-24T20:33:52.066Z,51.53
2018-06-24T20:36:19.492Z,52.20
2018-06-24T20:38:46.858Z,52.70
2018-06-24T20:41:14.271Z,53.27
2018-06-24T20:43:41.923Z,52.62
2018-06-24T20:46:09.296Z,53.16
2018-06-24T20:48:36.730Z,53.22
2018-06-24T20:51:04.029Z,53.66
2018-06-24T20:53:39.004Z,52.58
2018-06-24T20:56:06.393Z,52.77
2018-06-24T20:58:33.727Z,52.12
2018-06-24T21:01:01.079Z,52.91
2018-06-24T21:03:28.459Z,53.41
2018-06-24T21:05:55.814Z,53.07
2018-06-24T21:08:23.117Z,52.91
2018-06-24T21:10:50.406Z,53.05
2018-06-24T21:13:17.812Z,53.20
2018-06-24T21:15:45.198Z,52.98
2018-06-24T21:18:12.653Z,52.67
2018-06-24T21:20:40.040Z,53.08
2018-06-24T21:23:07.572Z,53.09
2018-06-24T21:25:35.274Z,52.24
2018-06-24T21:28:02.711Z,52.98
2018-06-24T21:30:30.070Z,53.40
2018-06-24T21:32:57.428Z,53.18
2018-06-24T21:35:24.837Z,53.03
2018-06-24T21:37:52.220Z,53.33
2018-06-24T21:40:19.718Z,53.21
2018-06-24T21:42:47.244Z,53.33
2018-06-24T21:45:14.652Z,54.17
2018-06-24T21:47:42.133Z,54.26
2018-06-24T21:50:09.459Z,54.31
2018-06-24T21:52:36.865Z,55.31
2018-06-24T21:55:04.337Z,54.52
2018-06-24T21:57:31.727Z,54.69
2018-06-24T21:59:59.143Z,55.07
2018-06-24T22:02:26.577Z,54.74
2018-06-24T22:04:53.961Z,54.67
2018-06-24T22:07:21.414Z,54.31
2018-06-24T22:09:48.852Z,54.67
2018-06-24T22:12:16.212Z,54.57
2018-06-24T22:14:45.149Z,54.92
2018-06-24T22:17:18.213Z,54.11
2018-06-24T22:19:45.556Z,54.42
2018-06-24T22:22:12.928Z,55.18
2018-06-24T22:24:40.300Z,54.45
2018-06-24T22:27:07.710Z,55.14
2018-06-24T22:29:35.122Z,55.04
2018-06-24T22:32:02.468Z,55.55
2018-06-24T22:34:29.794Z,55.42
2018-06-24T22:36:57.284Z,55.59
2018-06-24T22:39:28.453Z,54.97
2018-06-24T22:41:55.822Z,55.35
2018-06-24T22:44:23.345Z,54.97
2018-06-24T22:46:50.773Z,55.53
2018-06-24T22:49:18.056Z,55.19
2018-06-24T22:51:45.412Z,56.13
2018-06-24T22:54:12.814Z,55.81
2018-06-24T22:56:40.095Z,56.17
2018-06-24T22:59:51.138Z,56.12
2018-06-24T23:02:18.472Z,56.97
2018-06-24T23:04:45.823Z,57.58
2018-06-24T23:07:13.184Z,56.98
2018-06-24T23:09:40.572Z,56.97
2018-06-24T23:12:07.882Z,56.31
2018-06-24T23:14:35.237Z,56.07
2018-06-24T23:17:02.698Z,57.28
2018-06-24T23:19:30.087Z,56.63
2018-06-24T23:21:57.394Z,57.75
2018-06-24T23:24:24.814Z,57.57
2018-06-24T23:26:52.090Z,58.43
2018-06-24T23:29:19.501Z,59.24
2018-06-24T23:31:46.819Z,62.26
2018-06-24T23:34:14.244Z,63.29
2018-06-24T23:36:41.604Z,65.20
2018-06-24T23:39:09.642Z,64.70
2018-06-24T23:41:36.937Z,63.94
2018-06-24T23:44:04.412Z,64.47
2018-06-24T23:46:31.743Z,64.39
2018-06-24T23:48:59.120Z,64.20
2018-06-24T23:51:26.483Z,63.61
2018-06-24T23:53:53.858Z,63.31
2018-06-24T23:56:21.723Z,62.74
2018-06-24T23:58:49.037Z,63.62
